Time;durP1;ratioP1;P1;durP2;ratioP2;P2;SDS_P1;SDS_P2;PMS_P1;PMS_P2;Temp;Humidity;BMP_temperature;BMP_pressure;BME280_temperature;BME280_humidity;BME280_pressure;Samples;Min_cycle;Max_cycle;Signal;HPM_P1;HPM_P2
2023/01/29 00:00:09;;;;;;;6.70;3.53;;;5.20;99.90;;;;;;5110205;28;20067;-58
2023/01/29 00:02:39;;;;;;;7.00;3.28;;;5.20;99.90;;;;;;5110470;28;20494;-58
2023/01/29 00:05:07;;;;;;;9.13;2.85;;;5.30;99.90;;;;;;5128005;27;20050;-59
2023/01/29 00:07:55;;;;;;;4.95;3.08;;;5.20;99.90;;;;;;5130903;27;20050;-58
2023/01/29 00:10:24;;;;;;;6.32;3.17;;;5.20;99.90;;;;;;5130181;27;20058;-58
2023/01/29 00:12:52;;;;;;;6.97;3.13;;;5.20;99.90;;;;;;5108930;28;20043;-62
2023/01/29 00:15:19;;;;;;;8.13;3.33;;;5.20;99.90;;;;;;5110062;28;20039;-62
2023/01/29 00:17:47;;;;;;;5.80;2.85;;;5.20;99.90;;;;;;5111063;28;20048;-63
2023/01/29 00:20:15;;;;;;;6.57;3.13;;;5.20;99.90;;;;;;5112474;28;20520;-63
2023/01/29 00:22:43;;;;;;;6.13;3.58;;;5.20;99.90;;;;;;5100388;28;20402;-62
2023/01/29 00:25:10;;;;;;;11.68;3.40;;;5.20;99.90;;;;;;5110158;28;20052;-62
2023/01/29 00:27:38;;;;;;;5.88;2.80;;;5.20;99.90;;;;;;5096508;28;20048;-59
2023/01/29 00:30:15;;;;;;;6.18;3.45;;;5.20;99.90;;;;;;5071724;28;20413;-58
2023/01/29 00:32:46;;;;;;;4.70;3.30;;;5.20;99.90;;;;;;5099728;28;20394;-59
2023/01/29 00:35:16;;;;;;;8.32;4.30;;;5.20;99.90;;;;;;5129152;28;20042;-58
2023/01/29 00:37:44;;;;;;;6.32;3.35;;;5.20;99.90;;;;;;5130450;28;20046;-62
2023/01/29 00:40:12;;;;;;;5.40;2.25;;;5.30;99.90;;;;;;5112281;28;20058;-64
2023/01/29 00:45:32;;;;;;;8.07;3.67;;;5.20;99.90;;;;;;5091990;28;20082;-62
2023/01/29 00:47:59;;;;;;;7.78;3.63;;;5.20;99.90;;;;;;5093938;28;20074;-61
2023/01/29 00:50:28;;;;;;;6.82;3.60;;;5.20;99.90;;;;;;5109886;28;20062;-62
2023/01/29 00:52:56;;;;;;;6.53;3.42;;;5.20;99.90;;;;;;5113315;28;20051;-63
2023/01/29 00:55:23;;;;;;;7.50;3.72;;;5.30;99.90;;;;;;5130535;28;20047;-59
2023/01/29 00:57:51;;;;;;;6.20;3.38;;;5.30;99.90;;;;;;5087030;28;20055;-58
2023/01/29 01:00:19;;;;;;;10.48;3.72;;;5.30;99.90;;;;;;5092076;28;20445;-63
2023/01/29 01:03:05;;;;;;;6.15;3.88;;;5.30;99.90;;;;;;5106812;28;20407;-61
2023/01/29 01:05:34;;;;;;;9.77;3.92;;;5.30;99.90;;;;;;5086568;28;20051;-60
2023/01/29 01:08:03;;;;;;;6.78;3.80;;;5.30;99.90;;;;;;5076151;28;20051;-58
2023/01/29 01:10:32;;;;;;;10.40;4.28;;;5.30;99.90;;;;;;5113841;28;20044;-59
2023/01/29 01:13:05;;;;;;;7.55;3.67;;;5.30;99.90;;;;;;5097897;28;20048;-62
2023/01/29 01:15:35;;;;;;;7.78;3.15;;;5.30;99.90;;;;;;5095440;28;20394;-61
2023/01/29 01:18:04;;;;;;;9.90;4.35;;;5.30;99.90;;;;;;5098369;27;20051;-61
2023/01/29 01:20:34;;;;;;;8.00;3.08;;;5.30;99.90;;;;;;5115938;27;20051;-61
2023/01/29 01:23:02;;;;;;;6.68;3.33;;;5.20;99.90;;;;;;5120716;27;20060;-62
2023/01/29 01:25:30;;;;;;;7.35;3.15;;;5.30;99.90;;;;;;5113546;28;20052;-63
2023/01/29 01:27:58;;;;;;;7.88;3.85;;;5.20;99.90;;;;;;5103263;28;20052;-62
2023/01/29 01:30:29;;;;;;;6.07;3.92;;;5.20;99.90;;;;;;5113282;28;20039;-62
2023/01/29 01:32:58;;;;;;;5.43;2.73;;;5.20;99.90;;;;;;5113012;28;20054;-63
2023/01/29 01:35:25;;;;;;;6.20;3.08;;;5.20;99.90;;;;;;5115463;27;20039;-63
2023/01/29 01:37:53;;;;;;;4.60;3.03;;;5.20;99.90;;;;;;5133437;27;20039;-62
2023/01/29 01:40:23;;;;;;;5.30;3.00;;;5.20;99.90;;;;;;5133748;27;20043;-58
2023/01/29 01:42:56;;;;;;;3.85;2.50;;;5.30;99.90;;;;;;5114803;27;20051;-60
2023/01/29 01:45:33;;;;;;;7.25;2.90;;;5.30;99.90;;;;;;5113313;28;20050;-62
2023/01/29 01:48:15;;;;;;;6.72;3.30;;;5.30;99.90;;;;;;5097302;27;20043;-61
2023/01/29 01:50:49;;;;;;;5.53;3.00;;;5.30;99.90;;;;;;5075724;28;20067;-62
2023/01/29 01:53:46;;;;;;;7.53;3.13;;;5.30;99.90;;;;;;5100769;27;20394;-61
2023/01/29 01:56:23;;;;;;;5.38;2.90;;;5.30;99.90;;;;;;5077526;28;20051;-62
2023/01/29 01:58:55;;;;;;;7.97;2.80;;;5.30;99.90;;;;;;5086811;28;20058;-62
2023/01/29 02:01:26;;;;;;;4.72;2.85;;;5.30;99.90;;;;;;5110869;28;20048;-62
2023/01/29 02:09:45;;;;;;;5.15;2.67;;;5.30;99.90;;;;;;5112471;28;20051;-62
2023/01/29 02:12:15;;;;;;;5.57;2.90;;;5.40;99.90;;;;;;5109675;27;20048;-62
2023/01/29 02:14:44;;;;;;;4.53;3.10;;;5.40;99.90;;;;;;5092254;28;20051;-63
2023/01/29 02:17:14;;;;;;;4.05;2.88;;;5.40;99.90;;;;;;5093922;28;20504;-63
2023/01/29 02:20:15;;;;;;;4.55;2.75;;;5.40;99.90;;;;;;5112138;28;20039;-63
2023/01/29 02:23:13;;;;;;;6.82;3.13;;;5.40;99.90;;;;;;5099627;28;20066;-64
2023/01/29 02:26:12;;;;;;;6.18;2.90;;;5.40;99.90;;;;;;5111772;28;20129;-58
2023/01/29 02:28:57;;;;;;;6.07;2.70;;;5.40;99.90;;;;;;5114067;27;20500;-59
2023/01/29 02:31:58;;;;;;;4.22;2.90;;;5.40;99.90;;;;;;5089400;27;20061;-60
2023/01/29 02:37:58;;;;;;;8.27;4.03;;;5.40;99.90;;;;;;5090935;28;20495;-60
2023/01/29 02:40:33;;;;;;;5.63;3.50;;;5.40;99.90;;;;;;5062302;28;20055;-59
2023/01/29 02:43:05;;;;;;;6.88;4.03;;;5.40;99.90;;;;;;5096644;28;20044;-63
2023/01/29 02:45:50;;;;;;;5.15;3.60;;;5.30;99.90;;;;;;5111393;27;20040;-63
2023/01/29 02:48:21;;;;;;;10.50;3.92;;;5.30;99.90;;;;;;5094115;28;20051;-62
2023/01/29 02:51:03;;;;;;;9.88;4.07;;;5.30;99.90;;;;;;5113693;28;20044;-63
2023/01/29 02:53:44;;;;;;;7.70;4.18;;;5.30;99.90;;;;;;5111474;28;20529;-63
2023/01/29 02:56:20;;;;;;;8.98;4.45;;;5.30;99.90;;;;;;5095205;28;20050;-62
2023/01/29 02:58:56;;;;;;;7.90;4.85;;;5.40;99.90;;;;;;5095656;28;20039;-63
2023/01/29 03:01:32;;;;;;;10.07;5.28;;;5.30;99.90;;;;;;5077965;28;20059;-62
2023/01/29 03:04:12;;;;;;;7.93;5.00;;;5.30;99.90;;;;;;5103951;27;20043;-62
2023/01/29 03:06:49;;;;;;;10.32;5.70;;;5.30;99.90;;;;;;5105988;28;20044;-63
2023/01/29 03:09:36;;;;;;;11.25;5.60;;;5.30;99.90;;;;;;5113332;28;20047;-62
2023/01/29 03:12:32;;;;;;;8.15;5.13;;;5.30;99.90;;;;;;5094797;28;20047;-61
2023/01/29 03:15:14;;;;;;;6.53;4.45;;;5.30;99.90;;;;;;5095146;28;20040;-63
2023/01/29 03:17:59;;;;;;;7.82;4.50;;;5.30;99.90;;;;;;5094831;28;20487;-63
2023/01/29 03:20:32;;;;;;;9.85;4.15;;;5.30;99.90;;;;;;5094741;28;20047;-64
2023/01/29 03:23:07;;;;;;;7.35;4.18;;;5.30;99.90;;;;;;5094768;28;20498;-63
2023/01/29 03:34:27;;;;;;;8.30;4.82;;;5.30;99.90;;;;;;5095116;28;20561;-62
2023/01/29 03:37:00;;;;;;;7.78;4.43;;;5.30;99.90;;;;;;5088815;28;20055;-63
2023/01/29 03:39:29;;;;;;;5.85;3.65;;;5.20;99.90;;;;;;5083418;28;20620;-62
2023/01/29 03:42:16;;;;;;;10.75;5.25;;;5.30;99.90;;;;;;5090699;28;20359;-63
2023/01/29 03:45:14;;;;;;;8.55;4.57;;;5.30;99.90;;;;;;5085601;28;20621;-62
2023/01/29 03:47:46;;;;;;;8.15;5.10;;;5.30;99.90;;;;;;5070953;28;20570;-63
2023/01/29 03:50:38;;;;;;;11.25;5.05;;;5.30;99.90;;;;;;5098160;27;20212;-64
2023/01/29 03:53:08;;;;;;;9.43;5.25;;;5.30;99.90;;;;;;5100686;28;20054;-63
2023/01/29 03:55:45;;;;;;;8.45;4.70;;;5.30;99.90;;;;;;5091014;28;20073;-62
2023/01/29 03:58:31;;;;;;;6.85;4.38;;;5.20;99.90;;;;;;5106150;27;20506;-64
2023/01/29 04:01:07;;;;;;;8.35;4.82;;;5.20;99.90;;;;;;5091918;28;20066;-63
2023/01/29 04:03:45;;;;;;;11.40;5.10;;;5.20;99.90;;;;;;5108796;28;20043;-63
2023/01/29 04:06:19;;;;;;;7.55;4.68;;;5.20;99.90;;;;;;5090826;28;20048;-62
2023/01/29 04:09:08;;;;;;;6.72;3.92;;;5.30;99.90;;;;;;5090379;28;20058;-62
2023/01/29 04:11:46;;;;;;;7.57;4.57;;;5.30;99.90;;;;;;5090365;28;20054;-63
2023/01/29 04:14:16;;;;;;;11.02;4.50;;;5.20;99.90;;;;;;5090372;28;20284;-63
2023/01/29 04:16:50;;;;;;;7.63;4.03;;;5.20;99.90;;;;;;5090519;28;20047;-58
2023/01/29 04:19:30;;;;;;;8.68;3.83;;;5.30;99.90;;;;;;5090282;28;20035;-61
2023/01/29 04:22:11;;;;;;;10.43;3.72;;;5.20;99.90;;;;;;5089715;28;20055;-63
2023/01/29 04:24:40;;;;;;;7.50;3.92;;;5.30;99.90;;;;;;5108816;28;20051;-61
2023/01/29 04:27:40;;;;;;;5.78;3.78;;;5.20;99.90;;;;;;5114389;27;20070;-59
2023/01/29 04:30:47;;;;;;;9.80;3.60;;;5.20;99.90;;;;;;5073572;28;20051;-61
2023/01/29 04:33:39;;;;;;;8.15;2.70;;;5.20;99.90;;;;;;5090163;28;20043;-62
2023/01/29 04:37:03;;;;;;;7.60;4.07;;;5.20;99.90;;;;;;5090049;28;20403;-63
2023/01/29 04:39:34;;;;;;;4.90;3.28;;;5.30;99.90;;;;;;5008690;28;20476;-57
2023/01/29 04:42:23;;;;;;;4.57;2.97;;;5.20;99.90;;;;;;5106545;28;20040;-59
2023/01/29 04:45:11;;;;;;;5.03;2.88;;;5.20;99.90;;;;;;5106463;27;20051;-61
2023/01/29 04:48:01;;;;;;;5.65;3.33;;;5.20;99.90;;;;;;5112611;28;20040;-62
2023/01/29 04:50:45;;;;;;;4.53;3.15;;;5.20;99.90;;;;;;5100878;28;20047;-62
2023/01/29 04:53:35;;;;;;;6.18;3.30;;;5.20;99.90;;;;;;5112065;28;20059;-61
2023/01/29 04:56:09;;;;;;;6.20;2.97;;;5.20;99.90;;;;;;5094331;28;20055;-61
2023/01/29 04:58:43;;;;;;;6.78;3.25;;;5.20;99.90;;;;;;5127010;27;20031;-62
2023/01/29 05:01:15;;;;;;;14.85;4.80;;;5.20;99.90;;;;;;5111531;28;20040;-61
2023/01/29 05:03:47;;;;;;;7.47;3.95;;;5.20;99.90;;;;;;5111578;28;20051;-62
2023/01/29 05:06:17;;;;;;;7.15;3.55;;;5.20;99.90;;;;;;5111123;28;20039;-63
2023/01/29 05:08:46;;;;;;;7.78;3.92;;;5.20;99.90;;;;;;5112111;28;20078;-62
2023/01/29 05:11:14;;;;;;;6.32;3.28;;;5.20;99.90;;;;;;5108781;28;20044;-63
2023/01/29 05:13:42;;;;;;;7.32;2.90;;;5.20;99.90;;;;;;5108893;28;20059;-62
2023/01/29 05:16:19;;;;;;;4.95;3.25;;;5.20;99.90;;;;;;5101698;27;20040;-62
2023/01/29 05:18:47;;;;;;;7.10;3.55;;;5.20;99.90;;;;;;5091423;28;20052;-62
2023/01/29 05:21:15;;;;;;;7.22;3.72;;;5.20;99.90;;;;;;5111015;28;20490;-63
2023/01/29 05:23:51;;;;;;;5.57;2.97;;;5.20;99.90;;;;;;5111943;28;20559;-62
2023/01/29 05:29:06;;;;;;;8.52;4.22;;;5.20;99.90;;;;;;5129219;27;20491;-61
2023/01/29 05:31:34;;;;;;;6.10;3.33;;;5.20;99.90;;;;;;5112817;28;20048;-62
2023/01/29 05:34:02;;;;;;;6.25;3.38;;;5.20;99.90;;;;;;5111820;28;20373;-61
2023/01/29 05:36:29;;;;;;;6.07;3.65;;;5.30;99.90;;;;;;5112127;28;20052;-62
2023/01/29 05:38:57;;;;;;;5.55;3.10;;;5.30;99.90;;;;;;5114735;28;20059;-62
2023/01/29 05:41:24;;;;;;;6.38;4.03;;;5.30;99.90;;;;;;5096828;28;20043;-62
2023/01/29 05:43:52;;;;;;;6.72;3.90;;;5.20;99.90;;;;;;5114791;28;20048;-62
2023/01/29 05:46:20;;;;;;;6.47;3.83;;;5.30;99.90;;;;;;5096878;28;20044;-62
2023/01/29 05:48:47;;;;;;;6.63;3.35;;;5.20;99.90;;;;;;5114390;28;20486;-62
2023/01/29 05:51:15;;;;;;;9.43;4.43;;;5.30;99.90;;;;;;5114439;28;20048;-62
2023/01/29 05:53:42;;;;;;;8.73;3.92;;;5.30;99.90;;;;;;5113884;28;20043;-61
2023/01/29 05:56:10;;;;;;;7.60;3.83;;;5.30;99.90;;;;;;5114099;28;20549;-58
2023/01/29 05:58:38;;;;;;;6.50;3.47;;;5.30;99.90;;;;;;5114127;28;20051;-57
2023/01/29 06:01:20;;;;;;;12.68;5.00;;;5.30;99.90;;;;;;5114326;28;20046;-58
2023/01/29 06:03:48;;;;;;;7.88;4.20;;;5.30;99.90;;;;;;5106341;27;20039;-61
2023/01/29 06:06:16;;;;;;;7.05;3.72;;;5.30;99.90;;;;;;5109879;28;20044;-61
2023/01/29 06:08:44;;;;;;;6.95;3.85;;;5.30;99.90;;;;;;5091530;28;20375;-60
2023/01/29 06:11:12;;;;;;;9.32;4.38;;;5.30;99.90;;;;;;5109076;28;20043;-61
2023/01/29 06:13:40;;;;;;;5.75;3.53;;;5.30;99.90;;;;;;5108695;28;20500;-62
2023/01/29 06:16:09;;;;;;;5.38;3.40;;;5.30;99.90;;;;;;5108656;28;20054;-62
2023/01/29 06:18:37;;;;;;;7.13;3.40;;;5.30;99.90;;;;;;5109275;28;20048;-60
2023/01/29 06:21:08;;;;;;;4.95;3.20;;;5.30;99.90;;;;;;5109282;27;20054;-61
2023/01/29 06:23:35;;;;;;;7.00;3.60;;;5.40;99.90;;;;;;5102158;28;20048;-62
2023/01/29 06:26:06;;;;;;;5.65;3.33;;;5.30;99.90;;;;;;5112209;28;20047;-59
2023/01/29 06:28:34;;;;;;;5.90;2.75;;;5.40;99.90;;;;;;5111931;28;20036;-57
2023/01/29 06:31:03;;;;;;;5.68;3.22;;;5.30;99.90;;;;;;5110478;28;20058;-58
2023/01/29 06:33:51;;;;;;;7.78;3.85;;;5.30;99.90;;;;;;5109420;27;20071;-57
2023/01/29 06:36:18;;;;;;;5.90;3.33;;;5.30;99.90;;;;;;5113372;27;20411;-58
2023/01/29 06:38:46;;;;;;;4.68;2.90;;;5.40;99.90;;;;;;5091893;28;20059;-59
2023/01/29 06:41:17;;;;;;;4.40;3.10;;;5.30;99.90;;;;;;5092376;28;20043;-58
2023/01/29 06:43:45;;;;;;;8.93;3.75;;;5.30;99.90;;;;;;5118108;27;20051;-58
2023/01/29 06:46:13;;;;;;;8.65;3.33;;;5.30;99.90;;;;;;5110598;28;20486;-58
2023/01/29 06:48:40;;;;;;;6.88;3.58;;;5.30;99.90;;;;;;5111327;28;20039;-61
2023/01/29 06:51:09;;;;;;;6.18;3.55;;;5.30;99.90;;;;;;5109928;28;20051;-61
2023/01/29 06:53:38;;;;;;;5.97;3.20;;;5.20;99.90;;;;;;5099980;27;20050;-62
2023/01/29 06:56:06;;;;;;;7.30;3.30;;;5.20;99.90;;;;;;5108672;28;20382;-61
2023/01/29 06:58:37;;;;;;;6.60;3.38;;;5.20;99.90;;;;;;5093494;28;20055;-61
2023/01/29 07:01:07;;;;;;;8.02;3.47;;;5.20;99.90;;;;;;5127269;27;20043;-63
2023/01/29 07:03:35;;;;;;;6.72;3.17;;;5.10;99.90;;;;;;5069614;28;20044;-62
2023/01/29 07:06:04;;;;;;;4.78;2.85;;;5.10;99.90;;;;;;5087840;28;20055;-60
2023/01/29 07:08:36;;;;;;;6.32;2.90;;;5.10;99.90;;;;;;5091733;27;20044;-61
2023/01/29 07:11:04;;;;;;;8.48;3.33;;;5.10;99.90;;;;;;5109057;28;20062;-61
2023/01/29 07:13:32;;;;;;;6.07;2.92;;;5.00;99.90;;;;;;5119558;27;20476;-60
2023/01/29 07:16:01;;;;;;;6.97;3.03;;;5.00;99.90;;;;;;5131770;27;20047;-62
2023/01/29 07:18:30;;;;;;;7.90;3.00;;;4.90;99.90;;;;;;5131984;27;20043;-57
2023/01/29 07:21:02;;;;;;;8.82;3.42;;;4.90;99.90;;;;;;5114226;27;20047;-57
2023/01/29 07:23:30;;;;;;;7.45;3.28;;;4.90;99.90;;;;;;5104708;28;20720;-60
2023/01/29 07:26:03;;;;;;;7.53;3.35;;;4.90;99.90;;;;;;5092370;28;20418;-58
2023/01/29 07:28:35;;;;;;;6.65;3.10;;;4.80;99.90;;;;;;5089150;28;20050;-57
2023/01/29 07:31:04;;;;;;;6.50;3.33;;;5.50;99.90;;;;;;5106348;28;20059;-60
2023/01/29 07:33:32;;;;;;;7.68;3.60;;;4.80;99.90;;;;;;5111030;28;20047;-58
2023/01/29 07:36:00;;;;;;;7.93;2.88;;;4.80;99.90;;;;;;5110364;28;20055;-59
2023/01/29 07:38:28;;;;;;;9.32;3.42;;;4.80;99.90;;;;;;5089168;28;20043;-63
2023/01/29 07:40:55;;;;;;;5.32;3.42;;;4.80;99.90;;;;;;5107453;28;20513;-61
2023/01/29 07:43:23;;;;;;;7.25;3.63;;;4.80;99.90;;;;;;5110225;28;20055;-63
2023/01/29 07:45:51;;;;;;;5.03;3.20;;;4.80;99.90;;;;;;5110920;28;20039;-62
2023/01/29 07:48:19;;;;;;;6.45;3.50;;;4.80;99.90;;;;;;5110642;28;20397;-62
2023/01/29 07:50:54;;;;;;;4.65;2.83;;;4.80;99.90;;;;;;5126107;27;20390;-63
2023/01/29 07:53:21;;;;;;;11.48;3.08;;;4.90;99.90;;;;;;5106609;27;20055;-58
2023/01/29 07:55:49;;;;;;;5.72;2.88;;;4.80;99.90;;;;;;5110551;28;20128;-57
2023/01/29 07:58:17;;;;;;;4.97;2.90;;;4.80;99.90;;;;;;5126216;27;20362;-58
2023/01/29 08:00:45;;;;;;;4.18;2.40;;;4.80;99.90;;;;;;5114793;27;20048;-59
2023/01/29 08:03:16;;;;;;;7.97;2.58;;;4.80;99.90;;;;;;5106032;28;20067;-58
2023/01/29 08:05:44;;;;;;;6.03;3.10;;;4.70;99.90;;;;;;5107198;28;20055;-58
2023/01/29 08:08:12;;;;;;;5.35;2.40;;;4.70;99.90;;;;;;5082162;28;20036;-62
2023/01/29 08:10:40;;;;;;;7.45;3.05;;;4.70;99.90;;;;;;5104485;28;20047;-63
2023/01/29 08:13:08;;;;;;;5.20;2.92;;;4.70;99.90;;;;;;5109893;28;20051;-64
2023/01/29 08:15:36;;;;;;;6.22;2.55;;;4.70;99.90;;;;;;5110191;28;20074;-63
2023/01/29 08:18:06;;;;;;;4.03;2.40;;;4.70;99.90;;;;;;5110582;28;20040;-63
2023/01/29 08:20:33;;;;;;;4.20;2.65;;;4.70;99.90;;;;;;5091603;28;20047;-63
2023/01/29 08:23:04;;;;;;;4.60;2.53;;;4.70;99.90;;;;;;5112300;27;20478;-61
2023/01/29 08:25:33;;;;;;;4.70;2.50;;;4.70;99.90;;;;;;5130803;27;20135;-60
2023/01/29 08:28:01;;;;;;;6.13;2.17;;;5.30;99.90;;;;;;5088319;28;20067;-59
2023/01/29 08:30:32;;;;;;;8.85;2.65;;;4.70;99.90;;;;;;5102434;28;20047;-59
2023/01/29 08:33:02;;;;;;;2.97;2.13;;;4.70;99.90;;;;;;5109870;28;20514;-58
2023/01/29 08:35:31;;;;;;;3.17;2.25;;;4.80;99.90;;;;;;5110005;28;20060;-59
2023/01/29 08:38:00;;;;;;;4.97;2.35;;;4.80;99.90;;;;;;5070093;28;20052;-58
2023/01/29 08:40:32;;;;;;;6.43;2.67;;;4.90;99.90;;;;;;5102284;28;20044;-59
2023/01/29 08:43:04;;;;;;;6.22;2.08;;;4.90;99.90;;;;;;5098700;28;20043;-61
2023/01/29 08:45:38;;;;;;;8.18;3.85;;;5.00;99.90;;;;;;5109888;28;20052;-62
2023/01/29 08:48:06;;;;;;;3.38;2.08;;;5.00;99.90;;;;;;5109884;28;20047;-59
2023/01/29 08:50:35;;;;;;;7.47;2.40;;;5.00;99.90;;;;;;5109723;28;20051;-59
2023/01/29 08:53:06;;;;;;;5.63;2.55;;;5.10;99.90;;;;;;5109250;28;20058;-61
2023/01/29 08:55:36;;;;;;;6.78;2.67;;;5.10;99.90;;;;;;5109711;28;20085;-62
2023/01/29 08:58:07;;;;;;;5.95;2.88;;;5.10;99.90;;;;;;5111340;28;20036;-63
2023/01/29 09:00:35;;;;;;;4.82;2.55;;;5.10;99.90;;;;;;5123704;28;20051;-61
2023/01/29 09:03:06;;;;;;;6.63;2.83;;;5.10;99.90;;;;;;5118493;28;21085;-62
2023/01/29 09:05:35;;;;;;;8.90;3.28;;;5.10;99.90;;;;;;5130281;28;20047;-63
2023/01/29 09:08:03;;;;;;;3.72;2.38;;;5.10;99.90;;;;;;5121965;28;20040;-61
2023/01/29 09:10:30;;;;;;;5.18;3.35;;;5.10;99.90;;;;;;5102167;28;20043;-61
2023/01/29 09:12:58;;;;;;;4.90;2.85;;;5.10;99.90;;;;;;5112554;28;20056;-63
2023/01/29 09:15:26;;;;;;;6.75;2.67;;;5.10;99.90;;;;;;5130453;28;20047;-62
2023/01/29 09:17:53;;;;;;;4.80;2.28;;;5.20;99.90;;;;;;5125447;28;20043;-64
2023/01/29 09:20:21;;;;;;;3.92;2.50;;;5.20;99.90;;;;;;5109417;28;20048;-63
2023/01/29 09:22:52;;;;;;;6.43;2.20;;;5.20;99.90;;;;;;5089572;28;20063;-61
2023/01/29 09:25:20;;;;;;;5.00;2.80;;;5.20;99.90;;;;;;5071173;28;20047;-61
2023/01/29 09:27:47;;;;;;;5.47;2.60;;;5.30;99.90;;;;;;5112564;27;20065;-60
2023/01/29 09:30:15;;;;;;;3.75;2.22;;;5.20;99.90;;;;;;5123061;27;20410;-60
2023/01/29 09:32:43;;;;;;;5.00;2.45;;;5.30;99.90;;;;;;5113079;28;20047;-62
2023/01/29 09:35:23;;;;;;;4.07;2.25;;;5.30;99.90;;;;;;5113592;28;20047;-62
2023/01/29 09:37:51;;;;;;;6.28;2.92;;;5.30;99.90;;;;;;5112652;28;20048;-60
2023/01/29 09:40:34;;;;;;;4.65;2.80;;;5.30;99.90;;;;;;5103887;28;20047;-60
2023/01/29 09:43:09;;;;;;;6.40;2.83;;;5.40;99.90;;;;;;5117084;27;20065;-61
2023/01/29 09:45:43;;;;;;;6.90;3.15;;;5.40;99.90;;;;;;5113396;28;20225;-61
2023/01/29 09:48:12;;;;;;;6.32;2.90;;;5.50;99.90;;;;;;5113048;28;20050;-62
2023/01/29 09:50:45;;;;;;;8.77;3.90;;;5.40;99.90;;;;;;5112807;28;20059;-62
2023/01/29 09:53:25;;;;;;;7.90;3.33;;;5.40;99.90;;;;;;5110109;28;20051;-62
2023/01/29 09:56:16;;;;;;;7.78;3.65;;;5.30;99.90;;;;;;5092677;28;20055;-58
2023/01/29 09:58:44;;;;;;;5.75;2.55;;;5.50;99.90;;;;;;5131533;27;20046;-58
2023/01/29 10:01:41;;;;;;;8.13;2.92;;;5.50;99.90;;;;;;5114585;27;20043;-57
2023/01/29 10:04:36;;;;;;;8.48;2.10;;;5.50;99.90;;;;;;5101234;27;20054;-59
2023/01/29 10:07:10;;;;;;;4.82;2.25;;;5.60;99.90;;;;;;5133245;27;20035;-58
2023/01/29 10:09:46;;;;;;;7.68;2.92;;;5.50;99.90;;;;;;5117078;27;20047;-58
2023/01/29 10:12:49;;;;;;;3.10;2.30;;;5.60;99.90;;;;;;5124535;27;20062;-58
2023/01/29 10:15:41;;;;;;;6.30;2.35;;;5.70;99.90;;;;;;5074173;28;20043;-58
2023/01/29 10:18:39;;;;;;;3.35;1.77;;;5.90;99.90;;;;;;5099801;28;20051;-59
2023/01/29 10:21:43;;;;;;;3.97;2.25;;;5.80;99.90;;;;;;5112796;28;20040;-58
2023/01/29 10:24:30;;;;;;;4.13;2.17;;;5.90;99.90;;;;;;5097193;27;20071;-62
2023/01/29 10:26:59;;;;;;;3.92;1.80;;;6.00;99.90;;;;;;5100997;27;20047;-58
2023/01/29 10:29:28;;;;;;;5.45;1.60;;;6.20;99.90;;;;;;5132454;27;20047;-60
2023/01/29 10:32:04;;;;;;;1.67;1.33;;;6.20;99.90;;;;;;5127364;27;20048;-60
2023/01/29 10:34:48;;;;;;;3.05;1.40;;;6.30;99.90;;;;;;5112042;28;20646;-56
2023/01/29 10:37:39;;;;;;;3.53;2.00;;;6.40;99.90;;;;;;5109215;28;20052;-59
2023/01/29 10:40:20;;;;;;;1.30;1.20;;;6.40;99.90;;;;;;5087260;28;20047;-62
2023/01/29 10:42:51;;;;;;;1.48;1.00;;;6.50;99.90;;;;;;5111579;28;20043;-60
2023/01/29 10:45:52;;;;;;;2.97;1.35;;;6.10;99.90;;;;;;5111680;28;20471;-60
2023/01/29 10:48:38;;;;;;;2.85;1.70;;;6.50;99.90;;;;;;5111581;28;20040;-62
2023/01/29 10:51:27;;;;;;;6.82;3.53;;;6.50;99.90;;;;;;5110750;28;20036;-60
2023/01/29 10:54:33;;;;;;;9.27;4.55;;;6.50;99.90;;;;;;5098484;28;20059;-59
2023/01/29 10:57:43;;;;;;;5.97;2.65;;;6.50;99.90;;;;;;5102291;27;20047;-59
2023/01/29 11:00:16;;;;;;;10.57;2.90;;;6.40;99.90;;;;;;5076741;28;20051;-57
2023/01/29 11:02:47;;;;;;;3.05;1.55;;;6.40;99.90;;;;;;5108494;28;20480;-58
2023/01/29 11:05:42;;;;;;;3.22;1.33;;;6.30;99.90;;;;;;5111677;28;20043;-58
2023/01/29 11:08:16;;;;;;;2.63;1.20;;;6.20;99.90;;;;;;5111843;28;20422;-62
2023/01/29 11:10:58;;;;;;;7.40;2.95;;;6.20;99.90;;;;;;5111322;28;20398;-62
2023/01/29 11:13:33;;;;;;;2.53;1.45;;;6.10;99.90;;;;;;5111059;28;20047;-62
2023/01/29 11:16:04;;;;;;;4.50;1.55;;;6.10;99.90;;;;;;5093597;28;20084;-59
2023/01/29 11:18:55;;;;;;;3.47;1.27;;;6.10;99.90;;;;;;5111456;28;20036;-62
2023/01/29 11:21:25;;;;;;;3.22;1.70;;;6.20;99.90;;;;;;5111388;28;20051;-59
2023/01/29 11:24:15;;;;;;;4.25;1.50;;;6.30;99.90;;;;;;5101679;28;20044;-58
2023/01/29 11:26:47;;;;;;;2.83;1.45;;;6.30;99.90;;;;;;5113591;27;20043;-58
2023/01/29 11:29:29;;;;;;;4.35;1.60;;;6.40;99.90;;;;;;5109236;27;20390;-61
2023/01/29 11:31:59;;;;;;;2.33;1.40;;;6.60;99.90;;;;;;5095344;28;20044;-58
2023/01/29 11:34:28;;;;;;;13.75;2.20;;;6.90;99.90;;;;;;5092557;28;20047;-59
2023/01/29 11:37:13;;;;;;;8.20;1.98;;;7.10;99.90;;;;;;5105041;27;20047;-62
2023/01/29 11:39:45;;;;;;;8.18;3.70;;;7.40;99.90;;;;;;5118436;27;20447;-62
2023/01/29 11:42:22;;;;;;;6.35;3.30;;;7.60;99.90;;;;;;5124378;27;20475;-60
2023/01/29 11:44:50;;;;;;;10.07;4.88;;;7.90;99.90;;;;;;5105789;27;20649;-61
2023/01/29 11:47:22;;;;;;;10.85;5.18;;;8.10;99.90;;;;;;5087591;28;20046;-58
2023/01/29 11:49:56;;;;;;;8.25;3.72;;;8.20;99.90;;;;;;5117118;27;20039;-61
2023/01/29 11:52:33;;;;;;;2.95;1.02;;;8.40;99.90;;;;;;5122440;27;20375;-61
2023/01/29 11:55:12;;;;;;;1.10;1.00;;;8.40;99.90;;;;;;5110678;28;20399;-59
2023/01/29 11:57:42;;;;;;;2.85;1.10;;;8.50;99.90;;;;;;5110306;28;20044;-60
2023/01/29 12:00:30;;;;;;;0.80;0.73;;;8.70;99.90;;;;;;5101638;27;20512;-60
2023/01/29 12:03:03;;;;;;;3.95;1.10;;;8.70;99.90;;;;;;5102451;28;20058;-62
2023/01/29 12:05:31;;;;;;;2.97;0.90;;;8.80;99.90;;;;;;5110552;28;20394;-58
2023/01/29 12:08:00;;;;;;;2.80;1.00;;;9.00;99.90;;;;;;5110323;28;20062;-59
2023/01/29 12:10:40;;;;;;;3.28;1.17;;;9.20;99.90;;;;;;5110233;28;20044;-62
2023/01/29 12:13:19;;;;;;;1.25;0.90;;;9.30;99.90;;;;;;5101873;27;20047;-60
2023/01/29 12:15:47;;;;;;;2.88;0.77;;;9.50;99.90;;;;;;5099718;28;20031;-57
2023/01/29 12:18:15;;;;;;;2.08;0.70;;;9.80;99.90;;;;;;5083952;28;20559;-57
2023/01/29 12:20:54;;;;;;;1.90;0.60;;;9.90;99.90;;;;;;5105806;28;20075;-59
2023/01/29 12:23:37;;;;;;;2.60;0.70;;;10.00;99.90;;;;;;5113993;28;20047;-59
2023/01/29 12:26:25;;;;;;;1.98;0.85;;;10.00;99.90;;;;;;5110276;28;20050;-60
2023/01/29 12:29:18;;;;;;;2.35;0.88;;;10.10;99.90;;;;;;5090080;28;20498;-61
2023/01/29 12:31:53;;;;;;;1.92;0.90;;;10.20;99.90;;;;;;5075525;28;20044;-57
2023/01/29 12:34:33;;;;;;;1.20;0.90;;;10.40;99.90;;;;;;5094787;28;20063;-61
2023/01/29 12:37:10;;;;;;;;;;;10.60;99.90;;;;;;5092420;28;20373;-57
2023/01/29 12:39:38;;;;;;;1.02;0.70;;;10.80;99.90;;;;;;5077634;28;19927;-59
2023/01/29 12:42:19;;;;;;;1.38;0.82;;;10.90;99.90;;;;;;5095799;28;20051;-58
2023/01/29 12:45:06;;;;;;;5.95;1.00;;;11.00;99.90;;;;;;5101034;28;20044;-57
2023/01/29 12:47:42;;;;;;;1.58;0.73;;;11.10;99.90;;;;;;5090209;28;20048;-58
2023/01/29 12:50:26;;;;;;;3.58;1.30;;;11.20;99.90;;;;;;5093434;28;20047;-57
2023/01/29 12:53:00;;;;;;;1.38;0.90;;;11.30;99.90;;;;;;5092544;28;20484;-61
2023/01/29 12:55:46;;;;;;;7.25;1.23;;;11.20;99.90;;;;;;5089901;28;20056;-62
2023/01/29 12:58:20;;;;;;;3.08;1.15;;;11.10;99.90;;;;;;5096711;28;20048;-62
2023/01/29 13:00:52;;;;;;;1.00;0.88;;;10.80;99.90;;;;;;5100414;28;20040;-59
2023/01/29 13:03:31;;;;;;;1.02;0.85;;;10.40;99.90;;;;;;5102243;28;20054;-59
2023/01/29 13:06:05;;;;;;;1.67;1.08;;;10.00;99.90;;;;;;5110237;28;20062;-61
2023/01/29 13:08:50;;;;;;;2.67;0.80;;;9.70;99.90;;;;;;5112470;28;20052;-60
2023/01/29 13:11:43;;;;;;;2.42;0.98;;;9.40;99.90;;;;;;5104672;27;20055;-60
2023/01/29 13:14:17;;;;;;;1.70;0.93;;;9.10;99.90;;;;;;5087085;27;20051;-63
2023/01/29 13:16:49;;;;;;;1.73;0.90;;;9.00;99.90;;;;;;5090707;27;20040;-60
2023/01/29 13:19:27;;;;;;;0.98;0.88;;;9.00;99.90;;;;;;5071854;28;20443;-57
2023/01/29 13:21:58;;;;;;;3.83;1.90;;;8.90;99.90;;;;;;5107400;28;20055;-61
2023/01/29 13:24:37;;;;;;;2.03;0.85;;;8.80;99.90;;;;;;5110281;28;20040;-61
2023/01/29 13:27:05;;;;;;;2.90;1.20;;;8.70;99.90;;;;;;5109863;28;20054;-60
2023/01/29 13:29:36;;;;;;;3.42;1.20;;;8.60;99.90;;;;;;5091422;28;20055;-60
2023/01/29 13:32:04;;;;;;;3.15;1.00;;;8.50;99.90;;;;;;5107840;28;20051;-56
2023/01/29 13:35:03;;;;;;;2.65;1.15;;;8.50;99.90;;;;;;5092467;27;20067;-57
2023/01/29 13:37:38;;;;;;;4.18;1.58;;;8.50;99.90;;;;;;5071192;28;20052;-56
2023/01/29 13:40:17;;;;;;;1.10;0.95;;;8.50;99.90;;;;;;5106834;27;20055;-58
2023/01/29 13:42:47;;;;;;;3.10;1.30;;;8.40;99.90;;;;;;5113006;27;20035;-57
2023/01/29 13:45:27;;;;;;;;;;;8.50;99.90;;;;;;5131287;27;20046;-60
2023/01/29 13:48:20;;;;;;;2.47;1.27;;;8.50;99.90;;;;;;5102027;28;19924;-62
2023/01/29 13:50:50;;;;;;;13.30;2.35;;;8.60;99.90;;;;;;5103674;28;20078;-59
2023/01/29 13:53:38;;;;;;;2.78;1.08;;;8.60;99.90;;;;;;5109447;28;20536;-56
2023/01/29 13:56:34;;;;;;;1.48;0.68;;;8.70;99.90;;;;;;5109032;28;20056;-57
2023/01/29 13:59:04;;;;;;;1.63;0.63;;;8.70;99.90;;;;;;5089221;28;20040;-57